Terminal Aerodrome Forecast
Issued by NWS

Home | Current Version | Previous Version | Graphics & Text | Print | Product List | Glossary On
Versions: 1 2 3 4 5 6 7 8 9 10 11 12
000
FTUS45 KVEF 281700
TAFDAG
TAF
KDAG 281740Z 2818/2918 29010KT P6SM SKC
     FM282100 VRB05KT P6SM SKC
     FM290100 25010KT P6SM SKC=

USA.gov is the U.S. government's official web portal to all federal, state and local government web resources and services.